createdAt,value
2022-08-17T00:07:24.111Z,19.12
2022-08-17T00:17:27.670Z,19.34
2022-08-17T00:27:30.400Z,19.29
2022-08-17T00:37:33.322Z,19.22
2022-08-17T00:47:36.010Z,19.13
2022-08-17T00:57:46.855Z,19.05
2022-08-17T01:07:53.548Z,18.94
2022-08-17T01:17:56.481Z,18.91
2022-08-17T01:27:59.022Z,18.88
2022-08-17T01:38:01.552Z,18.86
2022-08-17T01:48:04.282Z,18.74
2022-08-17T01:58:10.159Z,18.71
2022-08-17T02:08:19.843Z,18.70
2022-08-17T02:18:23.783Z,18.71
2022-08-17T02:28:26.919Z,18.73
2022-08-17T02:38:29.737Z,18.70
2022-08-17T02:48:32.699Z,18.72
2022-08-17T02:58:36.278Z,18.67
2022-08-17T03:08:38.537Z,18.65
2022-08-17T03:18:40.860Z,18.49
2022-08-17T03:28:43.443Z,18.34
2022-08-17T03:38:45.809Z,18.16
2022-08-17T03:49:07.508Z,18.05
2022-08-17T03:59:20.883Z,17.90
2022-08-17T04:09:25.597Z,17.84
2022-08-17T04:19:28.912Z,17.79
2022-08-17T04:29:49.939Z,17.89
2022-08-17T04:40:14.316Z,17.87
2022-08-17T04:50:17.168Z,17.84
2022-08-17T05:00:19.801Z,17.70
2022-08-17T05:10:24.513Z,17.73
2022-08-17T05:20:28.493Z,17.85
2022-08-17T05:30:32.379Z,18.03
2022-08-17T05:40:43.265Z,18.11
2022-08-17T05:51:11.614Z,18.19
2022-08-17T06:01:56.394Z,18.42
2022-08-17T06:12:05.401Z,18.70
2022-08-17T06:22:15.945Z,19.07
2022-08-17T06:32:20.088Z,19.63
2022-08-17T06:43:05.474Z,19.74
2022-08-17T06:53:28.823Z,19.83
2022-08-17T07:03:57.969Z,20.06
2022-08-17T07:14:03.604Z,20.51
2022-08-17T07:24:26.377Z,21.15
2022-08-17T07:35:10.700Z,21.30
2022-08-17T07:45:35.226Z,22.03
2022-08-17T07:55:41.934Z,21.98
2022-08-17T08:05:57.941Z,21.96
2022-08-17T08:16:30.168Z,21.91
2022-08-17T08:26:47.843Z,22.59
2022-08-17T08:37:22.598Z,23.43
2022-08-17T08:48:53.251Z,23.03
2022-08-17T09:10:57.117Z,21.32
2022-08-17T09:32:37.409Z,20.92
2022-08-17T09:53:31.665Z,21.53
2022-08-17T10:26:28.507Z,23.25
2022-08-17T10:37:04.572Z,23.73
2022-08-17T10:47:10.400Z,24.49
2022-08-17T10:57:45.851Z,24.06
2022-08-17T11:07:52.247Z,24.22
2022-08-17T11:18:33.517Z,25.03
2022-08-17T11:28:52.544Z,25.24
2022-08-17T11:39:05.204Z,25.16
2022-08-17T12:12:38.441Z,26.04
2022-08-17T12:57:00.448Z,27.95
2022-08-17T13:07:07.396Z,27.89
2022-08-17T13:17:29.996Z,28.73
2022-08-17T13:27:45.875Z,28.88
2022-08-17T13:38:10.005Z,29.85
2022-08-17T13:48:32.966Z,28.99
2022-08-17T13:58:42.673Z,28.33
2022-08-17T14:08:45.441Z,27.62
2022-08-17T14:18:56.650Z,26.26
2022-08-17T14:29:04.854Z,25.35
2022-08-17T14:39:26.324Z,24.26
2022-08-17T14:49:30.674Z,18.84
2022-08-17T14:59:34.392Z,17.93
2022-08-17T15:09:40.448Z,18.52
2022-08-17T15:19:44.441Z,19.57
2022-08-17T15:29:51.218Z,20.26
2022-08-17T15:39:55.427Z,21.15
2022-08-17T15:50:00.286Z,21.33
2022-08-17T16:00:07.607Z,21.48
2022-08-17T16:10:14.136Z,21.27
2022-08-17T16:20:21.103Z,20.88
2022-08-17T16:30:26.568Z,20.73
2022-08-17T16:40:31.309Z,20.38
2022-08-17T16:51:02.985Z,20.39
2022-08-17T17:01:11.460Z,20.22
2022-08-17T17:11:34.414Z,20.05
2022-08-17T17:21:52.448Z,19.84
2022-08-17T17:32:14.136Z,19.44
2022-08-17T17:42:25.196Z,19.37
2022-08-17T17:52:39.441Z,19.29
2022-08-17T18:02:55.438Z,19.01
2022-08-17T18:13:18.214Z,18.59
2022-08-17T18:23:27.068Z,18.21
2022-08-17T18:33:31.370Z,17.64
2022-08-17T18:43:53.103Z,17.41
2022-08-17T18:54:18.368Z,17.28
2022-08-17T19:04:38.814Z,16.84
2022-08-17T19:14:42.739Z,16.88
2022-08-17T19:24:47.769Z,16.83
2022-08-17T19:34:51.592Z,16.70
2022-08-17T19:45:13.068Z,16.71
2022-08-17T19:55:32.361Z,16.67
2022-08-17T20:06:08.698Z,16.62
2022-08-17T20:16:05.787Z,16.56
2022-08-17T20:26:08.479Z,16.56
2022-08-17T20:36:25.048Z,16.53
2022-08-17T20:46:33.045Z,16.62
2022-08-17T20:56:45.051Z,16.64
2022-08-17T21:07:25.430Z,16.60
2022-08-17T21:17:36.842Z,16.67
2022-08-17T21:27:59.187Z,16.67
2022-08-17T21:38:05.673Z,16.66
2022-08-17T21:48:16.639Z,16.67
2022-08-17T21:58:34.647Z,16.63
2022-08-17T22:08:37.501Z,16.64
2022-08-17T22:18:41.492Z,16.62
2022-08-17T22:28:52.743Z,16.53
2022-08-17T22:39:08.145Z,16.40
2022-08-17T22:49:11.363Z,16.36
2022-08-17T22:59:32.640Z,16.34
2022-08-17T23:09:36.295Z,16.31
2022-08-17T23:19:39.102Z,16.35
2022-08-17T23:29:42.901Z,16.33
2022-08-17T23:39:45.847Z,16.21
2022-08-17T23:49:48.483Z,16.17
2022-08-17T23:59:56.603Z,16.03
